Time;durP1;ratioP1;P1;durP2;ratioP2;P2;SDS_P1;SDS_P2;PMS_P1;PMS_P2;Temp;Humidity;BMP_temperature;BMP_pressure;BME280_temperature;BME280_humidity;BME280_pressure;Samples;Min_cycle;Max_cycle;Signal;HPM_P1;HPM_P2
2020/12/02 00:00:53;;;;;;;43.67;28.70;;;6.20;99.90;;;;;;5019793;28;20650;-62
2020/12/02 00:03:41;;;;;;;42.37;28.77;;;6.20;99.90;;;;;;5018992;28;20619;-63
2020/12/02 00:06:27;;;;;;;42.63;28.70;;;6.20;99.90;;;;;;5026763;28;20590;-64
2020/12/02 00:09:15;;;;;;;41.47;28.67;;;6.20;99.90;;;;;;5030306;28;20578;-64
2020/12/02 00:12:02;;;;;;;42.20;28.80;;;6.20;99.90;;;;;;5011323;28;20629;-63
2020/12/02 00:14:50;;;;;;;44.13;29.30;;;6.20;99.90;;;;;;5020062;28;20682;-65
2020/12/02 00:17:35;;;;;;;47.00;30.47;;;6.20;99.90;;;;;;5009259;28;20630;-65
2020/12/02 00:20:19;;;;;;;43.07;29.30;;;6.10;99.90;;;;;;5022991;28;21077;-64
2020/12/02 00:23:04;;;;;;;43.10;28.40;;;6.10;99.90;;;;;;5020488;28;20637;-64
2020/12/02 00:25:49;;;;;;;46.80;29.47;;;6.10;99.90;;;;;;5019076;28;20622;-64
2020/12/02 00:28:35;;;;;;;45.63;29.87;;;6.10;99.90;;;;;;5021699;28;21231;-64
2020/12/02 00:31:21;;;;;;;40.80;27.83;;;6.10;99.90;;;;;;5018069;28;21235;-64
2020/12/02 00:34:05;;;;;;;44.33;29.47;;;6.10;99.90;;;;;;5023423;28;21214;-64
2020/12/02 00:36:49;;;;;;;43.47;29.00;;;6.10;99.90;;;;;;5023665;28;21009;-64
2020/12/02 00:39:34;;;;;;;42.60;30.03;;;6.10;99.90;;;;;;5021336;28;20590;-64
2020/12/02 00:42:20;;;;;;;42.53;28.70;;;6.10;99.90;;;;;;5011360;28;21109;-64
2020/12/02 00:45:08;;;;;;;44.37;29.07;;;6.10;99.90;;;;;;5022243;28;20595;-64
2020/12/02 00:47:53;;;;;;;44.37;29.23;;;6.10;99.90;;;;;;5022168;28;21292;-64
2020/12/02 00:50:38;;;;;;;43.37;29.70;;;6.10;99.90;;;;;;5024772;28;20693;-65
2020/12/02 00:53:26;;;;;;;45.20;29.37;;;6.10;99.90;;;;;;5016770;28;20726;-64
2020/12/02 00:56:12;;;;;;;43.97;28.30;;;6.10;99.90;;;;;;5017742;28;20653;-64
2020/12/02 00:59:14;;;;;;;43.07;29.43;;;6.10;99.90;;;;;;5025470;28;21068;-66
2020/12/02 01:02:05;;;;;;;44.83;29.93;;;6.00;99.90;;;;;;5028230;28;20640;-64
2020/12/02 01:04:52;;;;;;;41.17;28.60;;;6.00;99.90;;;;;;5014639;28;20619;-64
2020/12/02 01:07:40;;;;;;;46.33;29.70;;;6.00;99.90;;;;;;5022934;28;20611;-64
2020/12/02 01:10:25;;;;;;;43.00;30.57;;;6.00;99.90;;;;;;5023289;28;21342;-65
2020/12/02 01:13:09;;;;;;;50.07;31.67;;;6.00;99.90;;;;;;5021495;28;21004;-64
2020/12/02 01:15:54;;;;;;;48.87;31.37;;;6.00;99.90;;;;;;5021725;28;21205;-64
2020/12/02 01:18:38;;;;;;;47.07;30.70;;;6.00;99.90;;;;;;5016142;28;21078;-63
2020/12/02 01:21:31;;;;;;;46.07;30.13;;;6.00;99.90;;;;;;5020414;28;20627;-64
2020/12/02 01:24:22;;;;;;;49.43;30.77;;;6.00;99.90;;;;;;5010917;28;20738;-64
2020/12/02 01:27:16;;;;;;;48.57;33.20;;;5.90;99.90;;;;;;5007052;28;20671;-64
2020/12/02 01:30:03;;;;;;;47.90;32.37;;;5.90;99.90;;;;;;5034128;28;20667;-64
2020/12/02 01:32:49;;;;;;;47.17;30.77;;;5.90;99.90;;;;;;5028009;28;20701;-64
2020/12/02 01:35:33;;;;;;;51.57;32.43;;;5.90;99.90;;;;;;5018753;28;20673;-64
2020/12/02 01:38:26;;;;;;;48.70;32.50;;;5.90;99.90;;;;;;5020170;28;20583;-64
2020/12/02 01:41:11;;;;;;;45.70;31.17;;;6.00;99.90;;;;;;5022709;28;20832;-62
2020/12/02 01:43:56;;;;;;;47.47;31.70;;;5.90;99.90;;;;;;5016249;28;20655;-64
2020/12/02 01:46:58;;;;;;;50.30;31.00;;;5.90;99.90;;;;;;5016725;28;20635;-64
2020/12/02 01:49:51;;;;;;;46.67;31.23;;;5.90;99.90;;;;;;5014468;28;20619;-63
2020/12/02 01:52:47;;;;;;;46.37;32.03;;;5.90;99.90;;;;;;5021213;28;20639;-65
2020/12/02 01:55:53;;;;;;;42.77;29.40;;;5.90;99.90;;;;;;5017731;28;21218;-64
2020/12/02 01:58:41;;;;;;;42.90;29.57;;;5.90;99.90;;;;;;5014254;28;20698;-64
2020/12/02 02:01:57;;;;;;;47.33;31.10;;;5.90;99.90;;;;;;5027772;28;20726;-65
2020/12/02 02:04:53;;;;;;;45.03;29.53;;;5.90;99.90;;;;;;5034957;28;20646;-64
2020/12/02 02:07:39;;;;;;;47.70;30.90;;;5.80;99.90;;;;;;5013989;28;20718;-64
2020/12/02 02:10:35;;;;;;;47.20;30.83;;;5.80;99.90;;;;;;5037835;23;20697;-71
2020/12/02 02:13:48;;;;;;;47.87;30.67;;;5.80;99.90;;;;;;5029432;28;20659;-70
2020/12/02 02:16:45;;;;;;;46.90;31.93;;;5.80;99.90;;;;;;5031262;28;20718;-71
2020/12/02 02:19:30;;;;;;;42.83;27.90;;;5.90;99.90;;;;;;5033693;28;20707;-70
2020/12/02 02:22:15;;;;;;;42.93;28.67;;;5.80;99.90;;;;;;5022550;28;20717;-70
2020/12/02 02:25:01;;;;;;;42.60;28.53;;;5.80;99.90;;;;;;5026491;28;21194;-71
2020/12/02 02:27:46;;;;;;;42.20;30.70;;;5.80;99.90;;;;;;5027811;28;20588;-71
2020/12/02 02:30:33;;;;;;;44.30;30.23;;;5.80;99.90;;;;;;5019893;28;20643;-71
2020/12/02 02:33:18;;;;;;;45.53;28.73;;;5.80;99.90;;;;;;5032162;28;20639;-71
2020/12/02 02:36:03;;;;;;;39.20;27.90;;;5.80;99.90;;;;;;5027982;28;20754;-71
2020/12/02 02:38:47;;;;;;;43.23;28.57;;;5.80;99.90;;;;;;5031249;28;21066;-70
2020/12/02 02:41:33;;;;;;;42.77;28.17;;;5.80;99.90;;;;;;5028744;28;20995;-71
2020/12/02 02:44:17;;;;;;;38.80;27.70;;;5.90;99.90;;;;;;5031707;28;20682;-70
2020/12/02 02:47:02;;;;;;;40.57;27.67;;;5.90;99.90;;;;;;5032766;28;21067;-70
2020/12/02 02:49:47;;;;;;;38.07;26.87;;;5.90;99.90;;;;;;5029794;28;20622;-70
2020/12/02 02:52:31;;;;;;;42.10;28.10;;;5.80;99.90;;;;;;5011481;28;21237;-70
2020/12/02 02:55:19;;;;;;;37.60;27.80;;;5.90;99.90;;;;;;5008399;28;20639;-71
2020/12/02 02:58:04;;;;;;;38.93;28.40;;;5.90;99.90;;;;;;5009846;28;22305;-71
2020/12/02 03:00:48;;;;;;;42.03;27.97;;;5.90;99.90;;;;;;5007186;28;20738;-68
2020/12/02 03:03:33;;;;;;;40.27;28.43;;;5.80;99.90;;;;;;5031875;28;20578;-70
2020/12/02 03:06:17;;;;;;;44.07;29.13;;;5.80;99.90;;;;;;5032391;28;20681;-71
2020/12/02 03:09:03;;;;;;;39.10;28.10;;;5.80;99.90;;;;;;5027118;28;21329;-71
2020/12/02 03:11:53;;;;;;;42.03;28.77;;;5.80;99.90;;;;;;5030333;28;21014;-70
2020/12/02 03:14:41;;;;;;;39.20;28.07;;;5.90;99.90;;;;;;5026575;28;20615;-70
2020/12/02 03:17:27;;;;;;;40.13;26.83;;;5.80;99.90;;;;;;5032137;28;20635;-70
2020/12/02 03:20:19;;;;;;;39.83;28.00;;;5.80;99.90;;;;;;5018010;28;20707;-71
2020/12/02 03:23:08;;;;;;;42.47;28.67;;;5.90;99.90;;;;;;5022713;28;20655;-70
2020/12/02 03:25:52;;;;;;;42.47;27.63;;;5.90;99.90;;;;;;5009086;28;20602;-70
2020/12/02 03:28:38;;;;;;;44.17;29.67;;;5.90;99.90;;;;;;5012045;28;20628;-71
2020/12/02 03:31:23;;;;;;;40.23;28.17;;;5.90;99.90;;;;;;5013252;28;20673;-70
2020/12/02 03:34:11;;;;;;;40.70;27.27;;;5.90;99.90;;;;;;5024088;28;20685;-70
2020/12/02 03:36:56;;;;;;;45.53;31.13;;;5.90;99.90;;;;;;5031802;28;20635;-70
2020/12/02 03:39:41;;;;;;;40.83;28.77;;;5.80;99.90;;;;;;5041467;28;20694;-70
2020/12/02 03:42:26;;;;;;;40.83;28.83;;;5.80;99.90;;;;;;5039148;28;21296;-70
2020/12/02 03:45:11;;;;;;;39.77;26.93;;;5.80;99.90;;;;;;5029998;28;21204;-70
2020/12/02 03:47:55;;;;;;;44.20;28.37;;;5.80;99.90;;;;;;5025268;28;20714;-71
2020/12/02 03:50:41;;;;;;;41.50;28.00;;;5.80;99.90;;;;;;5029348;28;20666;-71
2020/12/02 03:53:25;;;;;;;41.17;28.40;;;5.80;99.90;;;;;;5027724;28;20774;-71
2020/12/02 03:56:10;;;;;;;39.30;28.00;;;5.80;99.90;;;;;;5033762;28;21275;-71
2020/12/02 03:58:54;;;;;;;40.37;26.97;;;5.90;99.90;;;;;;5027851;28;20603;-71
2020/12/02 04:01:42;;;;;;;37.43;27.30;;;5.80;99.90;;;;;;5023757;28;20693;-70
2020/12/02 04:04:27;;;;;;;38.70;27.03;;;5.80;99.90;;;;;;5027349;28;20591;-70
2020/12/02 04:07:11;;;;;;;41.03;28.13;;;5.80;99.90;;;;;;5028127;28;20971;-70
2020/12/02 04:09:55;;;;;;;39.37;26.87;;;5.80;99.90;;;;;;5029500;28;20673;-71
2020/12/02 04:12:42;;;;;;;44.33;27.80;;;5.80;99.90;;;;;;5037876;28;20658;-71
2020/12/02 04:15:27;;;;;;;39.10;27.73;;;5.80;99.90;;;;;;5040964;28;20701;-71
2020/12/02 04:18:12;;;;;;;38.70;26.53;;;5.80;99.90;;;;;;5026958;28;20675;-70
2020/12/02 04:20:56;;;;;;;40.37;27.80;;;5.90;99.90;;;;;;5028693;28;20707;-70
2020/12/02 04:23:41;;;;;;;37.57;26.10;;;5.80;99.90;;;;;;5031648;28;20607;-70
2020/12/02 04:26:27;;;;;;;41.30;28.07;;;5.80;99.90;;;;;;5025061;28;20616;-71
2020/12/02 04:29:12;;;;;;;42.70;27.77;;;5.80;99.90;;;;;;5031574;28;20723;-70
2020/12/02 04:31:56;;;;;;;41.87;29.23;;;5.80;99.90;;;;;;5028006;28;21244;-70
2020/12/02 04:34:44;;;;;;;39.93;27.43;;;5.80;99.90;;;;;;5026794;28;20586;-70
2020/12/02 04:37:30;;;;;;;39.20;27.37;;;5.80;99.90;;;;;;5029938;28;20638;-70
2020/12/02 04:40:34;;;;;;;40.33;27.03;;;5.80;99.90;;;;;;5044633;28;20721;-70
2020/12/02 04:43:28;;;;;;;39.60;27.43;;;5.80;99.90;;;;;;5028713;28;20635;-71
2020/12/02 04:46:24;;;;;;;42.40;29.10;;;5.80;99.90;;;;;;5019159;28;20604;-70
2020/12/02 04:49:22;;;;;;;40.50;28.43;;;5.80;99.90;;;;;;5016901;28;20610;-71
2020/12/02 04:52:13;;;;;;;41.00;27.70;;;5.80;99.90;;;;;;5024094;28;21270;-70
2020/12/02 04:54:57;;;;;;;39.73;26.10;;;5.80;99.90;;;;;;5015933;28;20606;-70
2020/12/02 04:57:42;;;;;;;36.20;25.80;;;5.80;99.90;;;;;;5023028;28;21038;-70
2020/12/02 05:00:30;;;;;;;42.27;28.70;;;5.80;99.90;;;;;;5026867;28;20610;-70
2020/12/02 05:03:15;;;;;;;37.10;25.93;;;5.80;99.90;;;;;;5028874;28;20755;-70
2020/12/02 05:06:01;;;;;;;37.70;27.93;;;5.80;99.90;;;;;;5023781;28;20598;-70
2020/12/02 05:08:45;;;;;;;40.27;28.37;;;5.80;99.90;;;;;;5034654;28;20676;-70
2020/12/02 05:11:30;;;;;;;39.70;27.23;;;5.80;99.90;;;;;;5025658;28;20655;-71
2020/12/02 05:14:15;;;;;;;37.27;26.40;;;5.80;99.90;;;;;;5026746;28;20614;-70
2020/12/02 05:17:28;;;;;;;40.07;27.93;;;5.80;99.90;;;;;;5021723;28;20630;-71
2020/12/02 05:20:22;;;;;;;36.33;26.60;;;5.80;99.90;;;;;;5041899;28;20682;-70
2020/12/02 05:23:21;;;;;;;40.77;27.97;;;5.80;99.90;;;;;;5037632;28;20813;-71
2020/12/02 05:26:17;;;;;;;39.50;26.23;;;5.80;99.90;;;;;;5036019;28;20611;-70
2020/12/02 05:29:08;;;;;;;36.10;24.33;;;5.80;99.90;;;;;;5025159;28;20583;-71
2020/12/02 05:32:11;;;;;;;36.40;26.37;;;5.80;99.90;;;;;;5021202;28;20646;-71
2020/12/02 05:34:59;;;;;;;36.80;26.13;;;5.80;99.90;;;;;;5007964;28;20797;-70
2020/12/02 05:37:53;;;;;;;37.43;26.13;;;5.80;99.90;;;;;;5006510;28;20682;-70
2020/12/02 05:40:38;;;;;;;39.17;26.50;;;5.80;99.90;;;;;;5013763;28;20679;-70
2020/12/02 05:43:27;;;;;;;38.43;26.60;;;5.80;99.90;;;;;;5039677;28;20726;-71
2020/12/02 05:46:27;;;;;;;34.47;24.80;;;5.90;99.90;;;;;;5024090;28;20977;-71
2020/12/02 05:49:23;;;;;;;37.23;25.30;;;5.90;99.90;;;;;;5025555;28;20746;-70
2020/12/02 05:52:14;;;;;;;38.73;26.67;;;5.90;99.90;;;;;;5014245;28;20648;-70
2020/12/02 05:55:22;;;;;;;36.33;26.27;;;5.90;99.90;;;;;;5022203;28;20637;-70
2020/12/02 05:58:15;;;;;;;39.83;28.00;;;5.90;99.90;;;;;;5022810;28;20733;-70
2020/12/02 06:01:00;;;;;;;35.43;25.27;;;5.80;99.90;;;;;;5020580;28;20812;-71
2020/12/02 06:03:56;;;;;;;38.63;26.40;;;5.70;99.90;;;;;;5025010;28;20943;-70
2020/12/02 06:06:52;;;;;;;37.43;26.17;;;5.70;99.90;;;;;;5038419;28;20654;-70
2020/12/02 06:09:43;;;;;;;36.53;24.30;;;5.80;99.90;;;;;;5026515;28;20595;-68
2020/12/02 06:12:41;;;;;;;38.10;27.10;;;5.70;99.90;;;;;;5023190;28;20654;-71
2020/12/02 06:15:33;;;;;;;34.93;25.00;;;5.70;99.90;;;;;;5022992;28;20723;-71
2020/12/02 06:18:29;;;;;;;36.30;25.57;;;5.70;99.90;;;;;;5031190;28;20677;-70
2020/12/02 06:21:36;;;;;;;37.07;25.40;;;5.70;99.90;;;;;;5023350;28;20647;-70
2020/12/02 06:24:43;;;;;;;39.43;26.93;;;5.70;99.90;;;;;;5004077;28;20841;-70
2020/12/02 06:27:31;;;;;;;37.33;26.37;;;5.70;99.90;;;;;;5009908;28;20740;-70
2020/12/02 06:30:18;;;;;;;37.00;25.57;;;5.70;99.90;;;;;;5005151;28;20604;-70
2020/12/02 06:33:17;;;;;;;38.83;25.47;;;5.70;99.90;;;;;;5010097;28;20639;-71
2020/12/02 06:36:28;;;;;;;36.58;30.63;;;5.80;99.90;;;;;;4997598;28;20782;-69
2020/12/02 06:39:21;;;;;;;39.50;27.30;;;5.90;99.90;;;;;;5006765;28;20204;-69
2020/12/02 06:42:35;;;;;;;39.40;27.33;;;5.90;99.90;;;;;;5017833;28;21052;-70
2020/12/02 06:45:31;;;;;;;35.20;25.77;;;5.90;99.90;;;;;;5026556;28;20700;-71
2020/12/02 06:48:25;;;;;;;35.80;24.83;;;5.90;99.90;;;;;;5025905;28;20860;-69
2020/12/02 06:51:13;;;;;;;36.20;25.37;;;5.90;99.90;;;;;;5034261;28;20635;-70
2020/12/02 06:53:58;;;;;;;38.23;25.53;;;5.80;99.90;;;;;;5029046;28;20598;-70
2020/12/02 06:56:42;;;;;;;38.80;25.83;;;5.80;99.90;;;;;;5028654;28;20595;-70
2020/12/02 06:59:27;;;;;;;37.50;26.43;;;5.80;99.90;;;;;;5024329;28;20784;-70
2020/12/02 07:02:25;;;;;;;35.70;26.00;;;5.80;99.90;;;;;;5026337;28;20646;-70
2020/12/02 07:05:39;;;;;;;37.07;24.07;;;5.80;99.90;;;;;;5005362;28;20587;-71
2020/12/02 07:08:33;;;;;;;34.73;24.13;;;5.80;99.90;;;;;;5030965;28;20757;-70
2020/12/02 07:11:22;;;;;;;35.80;24.73;;;5.80;99.90;;;;;;5028567;28;20634;-71
2020/12/02 07:14:18;;;;;;;34.90;24.90;;;5.80;99.90;;;;;;5032322;28;20742;-70
2020/12/02 07:17:07;;;;;;;32.67;25.50;;;5.80;99.90;;;;;;5030417;28;21028;-70
2020/12/02 07:19:53;;;;;;;37.47;25.27;;;5.90;99.90;;;;;;5029919;28;20658;-71
2020/12/02 07:22:45;;;;;;;37.57;25.53;;;5.90;99.90;;;;;;5022536;28;20998;-70
2020/12/02 07:25:30;;;;;;;35.03;24.80;;;5.90;99.90;;;;;;5021378;28;20597;-70
2020/12/02 07:28:22;;;;;;;36.20;24.73;;;5.90;99.90;;;;;;5006901;28;20567;-71
2020/12/02 07:31:14;;;;;;;38.40;25.80;;;5.90;99.90;;;;;;5018693;28;21039;-71
2020/12/02 07:34:06;;;;;;;33.00;24.20;;;5.90;99.90;;;;;;5031281;28;20599;-70
2020/12/02 07:37:17;;;;;;;34.43;24.63;;;5.90;99.90;;;;;;5029577;28;20659;-71
2020/12/02 07:40:04;;;;;;;37.27;24.57;;;5.90;99.90;;;;;;5036017;28;20659;-70
2020/12/02 07:42:49;;;;;;;38.03;25.13;;;6.00;99.90;;;;;;5030553;28;21286;-71
2020/12/02 07:45:35;;;;;;;35.13;24.80;;;6.00;99.90;;;;;;5027949;28;20622;-70
2020/12/02 07:48:26;;;;;;;35.20;25.53;;;6.00;99.90;;;;;;5032011;28;20587;-71
2020/12/02 07:51:30;;;;;;;35.30;24.83;;;6.00;99.90;;;;;;5028622;28;20777;-71
2020/12/02 07:54:29;;;;;;;37.70;24.90;;;6.00;99.90;;;;;;5028180;28;21180;-70
2020/12/02 07:57:15;;;;;;;34.20;23.90;;;6.00;99.90;;;;;;5030341;28;20619;-70
2020/12/02 08:00:18;;;;;;;31.60;24.00;;;5.90;99.90;;;;;;5031606;28;20595;-71
2020/12/02 08:03:06;;;;;;;35.40;25.07;;;6.00;99.90;;;;;;5023992;28;20619;-70
2020/12/02 08:06:01;;;;;;;41.00;24.40;;;6.00;99.90;;;;;;5028548;28;20612;-70
2020/12/02 08:08:46;;;;;;;32.90;25.00;;;6.00;99.90;;;;;;5031087;28;20614;-72
2020/12/02 08:11:30;;;;;;;36.50;24.17;;;6.00;99.90;;;;;;5033542;22;21336;-74
2020/12/02 08:14:56;;;;;;;32.77;24.23;;;6.10;99.90;;;;;;5003086;28;21133;-74
2020/12/02 08:17:41;;;;;;;34.87;23.87;;;6.10;99.90;;;;;;4988331;28;20633;-74
2020/12/02 08:20:32;;;;;;;34.53;25.43;;;6.00;99.90;;;;;;4995005;28;20743;-74
2020/12/02 08:23:37;;;;;;;34.43;24.67;;;6.00;99.90;;;;;;4997872;28;20762;-73
2020/12/02 08:26:23;;;;;;;34.10;24.37;;;5.90;99.90;;;;;;4999863;28;20604;-74
2020/12/02 08:29:10;;;;;;;32.70;23.13;;;5.80;99.90;;;;;;4989090;28;20624;-74
2020/12/02 08:32:26;;;;;;;35.60;25.57;;;5.80;99.90;;;;;;5001940;28;21293;-74
2020/12/02 08:35:19;;;;;;;35.53;24.53;;;5.90;99.90;;;;;;4988148;28;20616;-74
2020/12/02 08:38:04;;;;;;;35.60;24.13;;;5.90;99.90;;;;;;5002151;28;20672;-74
2020/12/02 08:40:51;;;;;;;33.13;24.50;;;5.80;99.90;;;;;;5000707;28;20648;-74
2020/12/02 08:43:48;;;;;;;32.77;23.37;;;5.90;99.90;;;;;;4997625;28;21252;-74
2020/12/02 08:46:46;;;;;;;32.60;23.17;;;5.90;99.90;;;;;;4999981;28;20672;-74
2020/12/02 08:49:32;;;;;;;32.80;23.83;;;5.80;99.90;;;;;;5008204;28;20624;-74
2020/12/02 08:52:16;;;;;;;33.30;23.73;;;5.90;99.90;;;;;;5007559;28;20794;-74
2020/12/02 08:55:01;;;;;;;29.33;22.97;;;5.90;99.90;;;;;;4992204;28;20596;-72
2020/12/02 08:57:45;;;;;;;30.40;22.90;;;5.90;99.90;;;;;;5006472;28;21266;-72
2020/12/02 09:00:29;;;;;;;30.80;23.60;;;5.90;99.90;;;;;;4992719;28;20702;-72
2020/12/02 09:03:15;;;;;;;31.60;22.77;;;6.00;99.90;;;;;;5007992;28;21207;-75
2020/12/02 09:05:59;;;;;;;30.50;22.13;;;6.00;99.90;;;;;;4987187;28;21748;-72
2020/12/02 09:08:45;;;;;;;32.67;24.10;;;6.10;99.90;;;;;;5008299;28;20600;-73
2020/12/02 09:11:32;;;;;;;30.53;22.47;;;6.10;99.90;;;;;;5013948;28;20644;-73
2020/12/02 09:14:17;;;;;;;32.07;24.07;;;6.10;99.90;;;;;;5010485;28;20628;-73
2020/12/02 09:17:02;;;;;;;29.47;21.67;;;6.00;99.90;;;;;;4992058;28;20636;-73
2020/12/02 09:19:46;;;;;;;34.93;23.40;;;6.00;99.90;;;;;;5005850;28;20688;-75
2020/12/02 09:22:32;;;;;;;30.20;22.07;;;6.00;99.90;;;;;;5009994;28;20635;-73
2020/12/02 09:25:23;;;;;;;29.97;22.97;;;6.00;99.90;;;;;;4999024;28;20713;-73
2020/12/02 09:28:08;;;;;;;29.93;22.10;;;6.10;99.90;;;;;;5017255;28;20631;-72
2020/12/02 09:30:52;;;;;;;32.67;23.97;;;6.10;99.90;;;;;;5008886;28;20720;-73
2020/12/02 09:33:37;;;;;;;30.73;24.17;;;6.20;99.90;;;;;;4996583;28;20669;-73
2020/12/02 09:36:23;;;;;;;31.07;22.90;;;6.20;99.90;;;;;;5004418;28;20609;-73
2020/12/02 09:39:08;;;;;;;31.93;23.67;;;6.20;99.90;;;;;;5007498;28;20687;-73
2020/12/02 09:42:01;;;;;;;33.40;24.50;;;6.20;99.90;;;;;;5001910;28;20640;-73
2020/12/02 09:45:05;;;;;;;32.30;23.40;;;6.10;99.90;;;;;;5007083;28;20629;-74
2020/12/02 09:47:53;;;;;;;31.53;23.50;;;6.10;99.90;;;;;;5001055;28;21139;-74
2020/12/02 09:50:38;;;;;;;32.47;24.13;;;6.10;99.90;;;;;;5002975;28;20616;-73
2020/12/02 09:53:28;;;;;;;30.40;22.20;;;6.00;99.90;;;;;;5005574;28;21116;-74
2020/12/02 09:56:13;;;;;;;32.40;23.60;;;5.90;99.90;;;;;;4996348;28;20600;-73
2020/12/02 09:58:58;;;;;;;33.30;23.57;;;6.00;99.90;;;;;;5005003;28;21178;-73
2020/12/02 10:02:27;;;;;;;34.77;24.53;;;5.90;99.90;;;;;;4991497;28;20632;-73
2020/12/02 10:05:49;;;;;;;35.80;24.80;;;5.90;99.90;;;;;;4990405;28;20785;-73
2020/12/02 10:08:58;;;;;;;33.03;24.70;;;5.80;99.90;;;;;;5003924;28;20748;-73
2020/12/02 10:11:49;;;;;;;33.73;23.87;;;5.80;99.90;;;;;;5004054;28;20980;-73
2020/12/02 10:14:34;;;;;;;33.03;24.10;;;5.70;99.90;;;;;;5007581;28;20938;-74
2020/12/02 10:17:30;;;;;;;31.80;22.83;;;5.70;99.90;;;;;;5004587;28;20651;-74
2020/12/02 10:20:39;;;;;;;32.93;24.37;;;5.80;99.90;;;;;;5004416;28;20924;-73
2020/12/02 10:23:53;;;;;;;31.53;23.60;;;5.80;99.90;;;;;;5002627;28;20741;-73
2020/12/02 10:27:09;;;;;;;34.50;23.83;;;5.90;99.90;;;;;;5004017;28;20628;-73
2020/12/02 10:30:12;;;;;;;34.17;24.37;;;5.90;99.90;;;;;;5008178;28;20772;-73
2020/12/02 10:33:25;;;;;;;35.67;25.67;;;5.80;99.90;;;;;;5002246;28;20635;-72
2020/12/02 10:36:09;;;;;;;34.13;24.20;;;5.80;99.90;;;;;;4990127;28;20734;-73
2020/12/02 10:38:59;;;;;;;36.80;25.30;;;5.80;99.90;;;;;;4990270;28;20631;-73
2020/12/02 10:42:18;;;;;;;32.47;22.90;;;5.80;99.90;;;;;;4997935;28;21209;-74
2020/12/02 10:45:15;;;;;;;34.03;24.10;;;5.80;99.90;;;;;;5012477;28;21095;-73
2020/12/02 10:48:45;;;;;;;36.00;24.73;;;5.70;99.90;;;;;;5005066;28;20648;-73
2020/12/02 10:51:36;;;;;;;31.63;25.23;;;5.60;99.90;;;;;;4985566;28;20639;-75
2020/12/02 10:54:24;;;;;;;33.83;25.70;;;5.60;99.90;;;;;;5002323;28;20627;-73
2020/12/02 10:57:21;;;;;;;33.00;25.00;;;5.60;99.90;;;;;;5006014;28;20690;-73
2020/12/02 11:00:07;;;;;;;32.57;24.37;;;5.70;99.90;;;;;;5003639;28;20756;-73
2020/12/02 11:03:33;;;;;;;32.47;24.10;;;5.70;99.90;;;;;;5004279;28;20642;-73
2020/12/02 11:06:37;;;;;;;31.73;24.17;;;5.70;99.90;;;;;;5003313;28;20771;-73
2020/12/02 11:09:43;;;;;;;35.10;24.10;;;5.70;99.90;;;;;;5000271;28;21225;-73
2020/12/02 11:12:48;;;;;;;32.60;24.40;;;5.70;99.90;;;;;;5006307;28;20651;-72
2020/12/02 11:15:38;;;;;;;30.13;22.90;;;5.70;99.90;;;;;;5010565;28;20648;-72
2020/12/02 11:18:52;;;;;;;31.87;23.63;;;5.70;99.90;;;;;;5011986;28;20668;-74
2020/12/02 11:21:58;;;;;;;35.37;25.87;;;5.70;99.90;;;;;;5005858;28;20648;-73
2020/12/02 11:25:01;;;;;;;33.20;24.70;;;5.70;99.90;;;;;;5006371;28;20646;-74
2020/12/02 11:27:46;;;;;;;31.63;23.43;;;5.70;99.90;;;;;;5001683;28;20640;-74
2020/12/02 11:30:39;;;;;;;31.53;23.60;;;5.80;99.90;;;;;;5000508;28;20609;-74
2020/12/02 11:34:15;;;;;;;34.67;24.57;;;5.80;99.90;;;;;;5002873;28;20688;-74
2020/12/02 11:37:13;;;;;;;30.73;23.27;;;5.70;99.90;;;;;;4932472;29;21170;-74
2020/12/02 11:40:11;;;;;;;34.50;25.20;;;5.80;99.90;;;;;;4928582;29;20957;-74
2020/12/02 11:43:13;;;;;;;33.93;24.83;;;5.80;99.90;;;;;;4919967;29;20827;-75
2020/12/02 11:45:58;;;;;;;35.40;24.00;;;5.80;99.90;;;;;;4926801;29;20630;-75
2020/12/02 11:49:12;;;;;;;30.70;23.90;;;5.80;99.90;;;;;;4915875;29;20646;-74
2020/12/02 11:52:10;;;;;;;32.57;23.60;;;5.90;99.90;;;;;;4917760;29;20659;-74
2020/12/02 11:54:55;;;;;;;31.27;24.07;;;5.90;99.90;;;;;;4915371;29;20611;-74
2020/12/02 11:57:50;;;;;;;32.43;24.00;;;5.90;99.90;;;;;;4930465;29;21010;-74
2020/12/02 12:00:35;;;;;;;36.13;25.13;;;5.90;99.90;;;;;;4906232;29;20579;-74
2020/12/02 12:03:41;;;;;;;34.30;24.87;;;5.90;99.90;;;;;;4911942;29;20631;-74
2020/12/02 12:06:29;;;;;;;34.73;25.27;;;5.90;99.90;;;;;;4915649;29;20634;-74
2020/12/02 12:09:34;;;;;;;33.20;24.07;;;6.00;99.90;;;;;;4917414;29;20600;-73
2020/12/02 12:12:25;;;;;;;33.73;24.13;;;5.80;99.90;;;;;;4960382;28;20670;-74
2020/12/02 12:15:36;;;;;;;32.00;24.50;;;5.80;99.90;;;;;;5011805;28;21234;-74
2020/12/02 12:18:50;;;;;;;34.20;24.80;;;5.80;99.90;;;;;;5001618;28;20942;-74
2020/12/02 12:22:08;;;;;;;30.57;23.23;;;5.80;99.90;;;;;;4996207;28;20636;-74
2020/12/02 12:24:56;;;;;;;33.83;24.57;;;5.80;99.90;;;;;;4982236;28;20701;-74
2020/12/02 12:27:42;;;;;;;34.30;25.13;;;5.80;99.90;;;;;;5010011;28;20894;-74
2020/12/02 12:30:27;;;;;;;30.33;23.77;;;5.70;99.90;;;;;;5002015;28;20592;-74
2020/12/02 12:33:56;;;;;;;35.03;24.63;;;5.90;99.90;;;;;;5004438;28;21020;-74
2020/12/02 12:36:41;;;;;;;31.43;22.90;;;5.90;99.90;;;;;;4948910;28;20636;-74
2020/12/02 12:39:41;;;;;;;32.03;23.30;;;6.00;99.90;;;;;;5009882;28;20818;-73
2020/12/02 12:42:29;;;;;;;28.73;21.97;;;5.90;99.90;;;;;;5002388;28;20652;-73
2020/12/02 12:45:21;;;;;;;30.20;22.57;;;5.90;99.90;;;;;;4987910;28;21131;-73
2020/12/02 12:48:10;;;;;;;30.37;23.50;;;5.90;99.90;;;;;;4988173;28;20612;-73
2020/12/02 12:50:59;;;;;;;32.70;24.30;;;5.90;99.90;;;;;;4996102;28;21106;-74
2020/12/02 12:53:44;;;;;;;32.07;23.47;;;5.90;99.90;;;;;;5002830;28;21314;-73
2020/12/02 12:56:30;;;;;;;31.83;23.27;;;5.90;99.90;;;;;;5005110;28;20636;-73
2020/12/02 12:59:16;;;;;;;35.33;24.53;;;5.90;99.90;;;;;;4992847;28;21147;-73
2020/12/02 13:02:00;;;;;;;31.20;23.70;;;5.90;99.90;;;;;;4988402;28;20640;-73
2020/12/02 13:04:45;;;;;;;28.30;22.20;;;5.80;99.90;;;;;;4991589;28;20700;-73
2020/12/02 13:07:36;;;;;;;32.83;23.70;;;5.80;99.90;;;;;;5000407;28;20703;-73
2020/12/02 13:10:34;;;;;;;30.60;23.00;;;5.70;99.90;;;;;;4989484;28;20609;-73
2020/12/02 13:13:30;;;;;;;28.93;22.67;;;5.80;99.90;;;;;;5004335;28;20637;-73
2020/12/02 13:16:23;;;;;;;33.80;23.30;;;5.80;99.90;;;;;;5003185;28;20768;-73
2020/12/02 13:19:18;;;;;;;31.83;23.63;;;5.80;99.90;;;;;;4985672;28;20640;-73
2020/12/02 13:22:09;;;;;;;30.90;23.20;;;5.80;99.90;;;;;;5004808;28;20664;-73
2020/12/02 13:25:04;;;;;;;29.87;23.77;;;5.90;99.90;;;;;;4999954;28;20609;-73
2020/12/02 13:27:59;;;;;;;32.33;23.50;;;5.90;99.90;;;;;;5017457;28;20600;-74
2020/12/02 13:30:57;;;;;;;32.13;24.10;;;6.00;99.90;;;;;;5025639;28;20643;-73
2020/12/02 13:33:43;;;;;;;35.60;24.57;;;6.00;99.90;;;;;;5022325;28;20644;-73
2020/12/02 13:36:32;;;;;;;34.00;24.00;;;6.00;99.90;;;;;;5016676;28;20695;-73
2020/12/02 13:39:17;;;;;;;32.93;24.03;;;6.00;99.90;;;;;;5002517;28;20656;-73
2020/12/02 13:42:01;;;;;;;33.47;24.17;;;6.00;99.90;;;;;;4993381;28;20636;-73
2020/12/02 13:44:54;;;;;;;33.03;25.30;;;6.00;99.90;;;;;;5019423;28;21250;-73
2020/12/02 13:47:44;;;;;;;35.10;24.60;;;6.00;99.90;;;;;;5015821;28;20601;-73
2020/12/02 13:50:31;;;;;;;31.33;24.50;;;6.10;99.90;;;;;;5002402;28;20601;-73
2020/12/02 13:53:35;;;;;;;30.27;24.27;;;6.10;99.90;;;;;;5004655;28;20672;-73
2020/12/02 13:56:28;;;;;;;33.10;23.93;;;6.00;99.90;;;;;;5009727;28;20775;-73
2020/12/02 13:59:30;;;;;;;35.37;24.67;;;6.10;99.90;;;;;;4988901;28;20663;-73
2020/12/02 14:02:33;;;;;;;32.60;25.10;;;6.10;99.90;;;;;;5003394;28;20711;-73
2020/12/02 14:05:36;;;;;;;34.00;24.70;;;6.00;99.90;;;;;;5004277;28;20736;-72
2020/12/02 14:08:21;;;;;;;35.70;24.27;;;6.00;99.90;;;;;;5002192;28;20635;-73
2020/12/02 14:11:07;;;;;;;31.43;23.57;;;6.00;99.90;;;;;;5017503;22;20664;-63
2020/12/02 14:13:52;;;;;;;28.40;22.20;;;6.20;99.90;;;;;;5030333;28;20617;-63
2020/12/02 14:16:40;;;;;;;31.77;22.73;;;6.10;99.90;;;;;;5014086;28;20594;-63
2020/12/02 14:19:25;;;;;;;29.23;22.27;;;6.00;99.90;;;;;;5015716;28;20744;-65
2020/12/02 14:22:20;;;;;;;32.03;23.33;;;6.00;99.90;;;;;;5006530;28;20655;-65
2020/12/02 14:25:05;;;;;;;30.53;22.87;;;5.90;99.90;;;;;;4994166;28;20786;-65
2020/12/02 14:27:54;;;;;;;30.23;23.93;;;5.80;99.90;;;;;;5004769;28;20569;-65
2020/12/02 14:30:39;;;;;;;33.13;24.47;;;5.80;99.90;;;;;;5005406;28;20691;-64
2020/12/02 14:33:24;;;;;;;32.70;24.17;;;5.80;99.90;;;;;;5001340;28;20643;-67
2020/12/02 14:36:08;;;;;;;33.87;24.90;;;5.80;99.90;;;;;;4997697;28;20599;-65
2020/12/02 14:38:53;;;;;;;33.23;24.43;;;5.80;99.90;;;;;;5011661;28;20745;-65
2020/12/02 14:41:37;;;;;;;31.83;24.40;;;5.80;99.90;;;;;;5008531;28;20659;-65